Time;durP1;ratioP1;P1;durP2;ratioP2;P2;SDS_P1;SDS_P2;PMS_P1;PMS_P2;Temp;Humidity;BMP_temperature;BMP_pressure;BME280_temperature;BME280_humidity;BME280_pressure;Samples;Min_cycle;Max_cycle;Signal;HPM_P1;HPM_P2
2021/06/05 00:00:44;;;;;;;11.93;5.72;;;18.80;99.90;;;;;;5011318;28;20725;-71
2021/06/05 00:03:13;;;;;;;7.53;3.80;;;18.90;99.90;;;;;;5004603;28;20093;-70
2021/06/05 00:05:59;;;;;;;7.68;3.90;;;18.90;99.90;;;;;;5009502;28;20129;-71
2021/06/05 00:08:31;;;;;;;7.47;3.63;;;18.90;99.90;;;;;;5008301;28;20089;-71
2021/06/05 00:11:01;;;;;;;9.52;4.68;;;18.80;99.90;;;;;;5005583;28;20125;-70
2021/06/05 00:13:35;;;;;;;8.73;3.35;;;19.00;99.90;;;;;;5006975;28;20060;-71
2021/06/05 00:16:04;;;;;;;7.20;3.33;;;18.90;99.90;;;;;;5005501;28;20080;-71
2021/06/05 00:18:32;;;;;;;6.63;3.58;;;18.90;99.90;;;;;;5041587;28;20115;-71
2021/06/05 00:20:59;;;;;;;6.43;3.67;;;18.80;99.90;;;;;;5011988;28;20086;-70
2021/06/05 00:23:26;;;;;;;8.68;3.53;;;18.90;99.90;;;;;;5011619;28;20088;-71
2021/06/05 00:25:55;;;;;;;8.70;3.55;;;19.00;99.90;;;;;;5007999;28;20137;-71
2021/06/05 00:28:23;;;;;;;4.75;3.50;;;19.00;99.90;;;;;;5010826;28;20073;-71
2021/06/05 00:30:50;;;;;;;7.22;3.60;;;19.10;99.90;;;;;;5008393;28;20133;-71
2021/06/05 00:33:17;;;;;;;5.95;3.35;;;19.10;99.90;;;;;;5011966;28;20046;-70
2021/06/05 00:35:44;;;;;;;4.28;3.33;;;19.10;99.90;;;;;;5009232;28;20052;-71
2021/06/05 00:38:11;;;;;;;3.72;3.08;;;19.20;99.90;;;;;;5010849;28;20485;-70
2021/06/05 00:40:45;;;;;;;4.53;3.05;;;19.20;99.90;;;;;;5011526;28;20077;-71
2021/06/05 00:43:14;;;;;;;8.23;3.67;;;19.00;99.90;;;;;;5007953;28;20592;-71
2021/06/05 00:45:44;;;;;;;5.50;3.15;;;19.00;99.90;;;;;;5008901;28;20140;-70
2021/06/05 00:48:11;;;;;;;6.38;3.05;;;19.00;99.90;;;;;;5008529;28;20077;-71
2021/06/05 00:50:42;;;;;;;8.02;3.25;;;18.80;99.90;;;;;;5024028;28;20059;-70
2021/06/05 00:53:11;;;;;;;29.92;18.23;;;18.70;99.90;;;;;;5011390;28;20405;-70
2021/06/05 00:55:42;;;;;;;33.35;22.15;;;18.70;99.90;;;;;;5008516;28;20558;-71
2021/06/05 00:58:09;;;;;;;31.50;20.88;;;18.90;99.90;;;;;;5014588;28;20050;-71
2021/06/05 01:00:51;;;;;;;21.45;13.98;;;18.90;99.90;;;;;;5003431;28;20125;-70
2021/06/05 01:03:18;;;;;;;24.42;11.40;;;18.80;99.90;;;;;;5008208;28;20164;-71
2021/06/05 01:05:48;;;;;;;15.65;7.95;;;18.90;99.90;;;;;;5008878;28;20140;-71
2021/06/05 01:08:22;;;;;;;18.45;8.70;;;18.90;99.90;;;;;;5011667;28;20077;-70
2021/06/05 01:10:54;;;;;;;17.02;6.57;;;18.80;99.90;;;;;;5009468;28;20104;-70
2021/06/05 01:13:37;;;;;;;12.13;5.80;;;18.90;99.90;;;;;;5007656;28;20057;-71
2021/06/05 01:16:07;;;;;;;9.40;5.80;;;18.80;99.90;;;;;;5009979;28;20085;-72
2021/06/05 01:18:50;;;;;;;11.05;5.88;;;18.80;99.90;;;;;;5009140;28;20052;-72
2021/06/05 01:21:41;;;;;;;10.18;5.47;;;18.70;99.90;;;;;;5007848;28;20412;-70
2021/06/05 01:24:41;;;;;;;8.52;5.22;;;18.90;99.90;;;;;;5009368;28;20813;-71
2021/06/05 01:27:24;;;;;;;9.25;5.25;;;18.70;99.90;;;;;;5006812;28;20432;-72
2021/06/05 01:29:55;;;;;;;7.75;5.18;;;18.70;99.90;;;;;;5021949;28;20137;-72
2021/06/05 01:32:26;;;;;;;9.25;5.28;;;18.70;99.90;;;;;;5004494;28;20141;-72
2021/06/05 01:34:54;;;;;;;;;;;18.70;99.90;;;;;;5005761;28;20050;-71
2021/06/05 01:37:23;;;;;;;12.38;5.43;;;18.70;99.90;;;;;;5010725;28;19964;-73
2021/06/05 01:39:51;;;;;;;13.13;5.00;;;18.70;99.90;;;;;;5005634;28;20621;-72
2021/06/05 01:42:26;;;;;;;12.75;5.65;;;18.70;99.90;;;;;;5008574;28;20078;-72
2021/06/05 01:44:57;;;;;;;9.52;5.35;;;18.70;99.90;;;;;;5007233;28;20532;-67
2021/06/05 01:47:25;;;;;;;11.45;5.35;;;18.60;99.90;;;;;;5007146;28;20057;-67
2021/06/05 01:49:52;;;;;;;11.50;4.68;;;18.60;99.90;;;;;;4997388;28;20145;-67
2021/06/05 01:52:26;;;;;;;8.98;4.57;;;18.70;99.90;;;;;;5010340;28;20208;-67
2021/06/05 01:54:58;;;;;;;8.05;4.53;;;18.70;99.90;;;;;;5011236;28;20137;-67
2021/06/05 01:57:29;;;;;;;8.23;4.28;;;18.70;99.90;;;;;;5007004;28;20069;-67
2021/06/05 01:59:56;;;;;;;7.45;4.70;;;18.60;99.90;;;;;;5023409;28;20068;-68
2021/06/05 02:02:23;;;;;;;6.85;4.63;;;18.60;99.90;;;;;;5010316;28;20573;-67
2021/06/05 02:04:50;;;;;;;17.35;4.97;;;18.60;99.90;;;;;;5010020;28;20069;-67
2021/06/05 02:07:18;;;;;;;7.10;4.80;;;18.50;99.90;;;;;;5008438;28;20137;-67
2021/06/05 02:09:45;;;;;;;9.02;5.00;;;18.60;99.90;;;;;;5008138;28;20076;-67
2021/06/05 02:12:29;;;;;;;9.43;4.70;;;18.40;99.90;;;;;;5005454;28;20050;-67
2021/06/05 02:15:16;;;;;;;7.38;4.20;;;18.50;99.90;;;;;;5007924;28;20077;-68
2021/06/05 02:17:45;;;;;;;7.75;5.13;;;18.70;99.90;;;;;;5007875;28;20564;-72
2021/06/05 02:20:26;;;;;;;7.68;4.68;;;18.70;99.90;;;;;;5016456;28;20066;-72
2021/06/05 02:22:56;;;;;;;7.07;4.45;;;18.80;99.90;;;;;;5008427;28;20132;-72
2021/06/05 02:25:25;;;;;;;6.13;4.28;;;18.80;99.90;;;;;;5006498;28;20053;-71
2021/06/05 02:27:54;;;;;;;6.63;4.50;;;18.80;99.90;;;;;;5009226;28;20053;-71
2021/06/05 02:30:23;;;;;;;8.38;4.43;;;18.80;99.90;;;;;;5007896;28;20144;-72
2021/06/05 02:32:50;;;;;;;8.43;4.18;;;18.80;99.90;;;;;;5009051;28;20081;-71
2021/06/05 02:35:23;;;;;;;8.85;4.47;;;18.80;99.90;;;;;;5006165;28;20484;-69
2021/06/05 02:37:50;;;;;;;8.85;4.07;;;18.80;99.90;;;;;;5007404;28;20081;-68
2021/06/05 02:40:22;;;;;;;5.35;4.03;;;18.80;99.90;;;;;;5007464;28;20065;-68
2021/06/05 02:42:49;;;;;;;6.80;3.92;;;18.90;99.90;;;;;;5008385;28;20175;-67
2021/06/05 02:45:26;;;;;;;6.60;3.75;;;18.90;99.90;;;;;;5008888;28;20478;-69
2021/06/05 02:47:57;;;;;;;7.47;3.63;;;18.90;99.90;;;;;;5006699;28;20577;-68
2021/06/05 02:50:31;;;;;;;8.38;3.95;;;18.80;99.90;;;;;;5005705;28;20045;-68
2021/06/05 02:52:58;;;;;;;6.45;3.55;;;18.80;99.90;;;;;;5007119;28;20137;-68
2021/06/05 02:55:25;;;;;;;6.85;3.33;;;18.80;99.90;;;;;;5005794;28;20052;-67
2021/06/05 02:57:53;;;;;;;6.20;3.63;;;18.90;99.90;;;;;;5004379;28;20070;-67
2021/06/05 03:00:26;;;;;;;4.55;3.42;;;18.70;99.90;;;;;;5007560;28;20076;-68
2021/06/05 03:02:54;;;;;;;4.78;3.03;;;18.70;99.90;;;;;;5007045;28;20089;-68
2021/06/05 03:05:22;;;;;;;3.40;2.58;;;18.70;99.90;;;;;;5006887;28;20108;-67
2021/06/05 03:07:49;;;;;;;4.60;3.03;;;18.60;99.90;;;;;;5005359;28;20532;-68
2021/06/05 03:10:16;;;;;;;3.50;2.13;;;18.70;99.90;;;;;;5008881;28;20081;-67
2021/06/05 03:12:43;;;;;;;3.60;2.30;;;18.80;99.90;;;;;;5001817;28;20222;-67
2021/06/05 03:15:12;;;;;;;4.70;2.60;;;18.90;99.90;;;;;;5006124;28;20082;-67
2021/06/05 03:17:39;;;;;;;6.03;2.67;;;18.80;99.90;;;;;;5007183;28;20081;-67
2021/06/05 03:20:11;;;;;;;6.03;2.80;;;19.00;99.90;;;;;;5002616;28;20046;-70
2021/06/05 03:22:39;;;;;;;7.75;3.17;;;18.90;99.90;;;;;;5008739;28;20450;-68
2021/06/05 03:25:06;;;;;;;7.75;2.95;;;18.90;99.90;;;;;;5009882;28;20120;-69
2021/06/05 03:27:33;;;;;;;4.55;3.10;;;18.80;99.90;;;;;;5009110;28;20073;-68
2021/06/05 03:30:06;;;;;;;5.05;3.30;;;18.80;99.90;;;;;;5007073;28;20050;-67
2021/06/05 03:32:34;;;;;;;5.32;3.22;;;18.80;99.90;;;;;;5012018;28;20073;-68
2021/06/05 03:35:01;;;;;;;5.60;2.60;;;18.80;99.90;;;;;;5012018;28;20629;-67
2021/06/05 03:37:27;;;;;;;7.72;3.15;;;18.80;99.90;;;;;;5009042;28;20140;-67
2021/06/05 03:39:54;;;;;;;7.72;2.65;;;18.70;99.90;;;;;;5009586;28;20129;-71
2021/06/05 03:42:21;;;;;;;4.53;3.13;;;18.60;99.90;;;;;;5013210;28;20081;-73
2021/06/05 03:44:48;;;;;;;4.82;2.83;;;18.80;99.90;;;;;;5007892;28;20514;-72
2021/06/05 03:47:19;;;;;;;4.93;3.05;;;18.60;99.90;;;;;;5010498;28;20107;-72
2021/06/05 03:49:45;;;;;;;6.60;2.83;;;18.80;99.90;;;;;;5009994;28;20081;-72
2021/06/05 03:52:12;;;;;;;3.22;2.33;;;18.90;99.90;;;;;;5012346;28;20097;-71
2021/06/05 03:54:39;;;;;;;7.85;2.70;;;18.90;99.90;;;;;;5010185;28;20149;-71
2021/06/05 03:57:06;;;;;;;9.48;2.60;;;19.00;99.90;;;;;;5011357;28;20038;-71
2021/06/05 03:59:33;;;;;;;5.43;2.60;;;19.10;99.90;;;;;;5009415;28;20046;-70
2021/06/05 04:02:00;;;;;;;6.93;2.60;;;19.00;99.90;;;;;;5009229;28;20457;-71
2021/06/05 04:04:27;;;;;;;3.55;2.13;;;19.20;99.90;;;;;;5008418;28;20869;-71
2021/06/05 04:06:54;;;;;;;5.78;2.63;;;19.30;99.90;;;;;;5008519;28;20351;-70
2021/06/05 04:09:21;;;;;;;5.25;2.40;;;19.30;99.90;;;;;;5007011;28;20046;-72
2021/06/05 04:11:47;;;;;;;7.60;2.80;;;19.20;99.90;;;;;;5008865;28;20757;-71
2021/06/05 04:14:15;;;;;;;5.13;2.50;;;19.20;99.90;;;;;;5009574;28;20509;-71
2021/06/05 04:16:42;;;;;;;5.63;2.80;;;19.20;99.90;;;;;;5005426;28;20517;-71
2021/06/05 04:19:10;;;;;;;5.07;2.58;;;19.10;99.90;;;;;;5010845;28;20054;-70
2021/06/05 04:21:37;;;;;;;5.55;3.00;;;19.10;99.90;;;;;;5011686;28;20482;-70
2021/06/05 04:24:05;;;;;;;4.13;2.53;;;19.00;99.90;;;;;;5010604;28;20080;-70
2021/06/05 04:26:31;;;;;;;5.18;3.03;;;19.10;99.90;;;;;;5009354;28;20046;-70
2021/06/05 04:28:58;;;;;;;8.52;3.53;;;19.10;99.90;;;;;;5010034;28;20484;-70
2021/06/05 04:31:25;;;;;;;4.18;2.92;;;19.10;99.90;;;;;;5013121;28;20050;-71
2021/06/05 04:33:52;;;;;;;7.53;3.35;;;19.20;99.90;;;;;;5008112;28;20488;-71
2021/06/05 04:36:19;;;;;;;5.03;3.50;;;19.20;99.90;;;;;;5008963;28;20541;-70
2021/06/05 04:38:47;;;;;;;6.53;3.88;;;19.10;99.90;;;;;;5011161;28;20082;-71
2021/06/05 04:41:17;;;;;;;6.05;3.10;;;19.20;99.90;;;;;;5008975;28;20124;-71
2021/06/05 04:43:44;;;;;;;11.18;3.42;;;19.20;99.90;;;;;;5008858;28;20117;-71
2021/06/05 04:46:13;;;;;;;6.00;3.08;;;19.20;99.90;;;;;;5008036;28;20056;-71
2021/06/05 04:48:44;;;;;;;5.00;2.97;;;19.20;99.90;;;;;;5005566;28;20108;-70
2021/06/05 04:51:13;;;;;;;4.82;2.70;;;19.20;99.90;;;;;;5008483;28;20136;-71
2021/06/05 04:53:40;;;;;;;4.22;2.80;;;19.30;99.90;;;;;;5011097;28;20137;-71
2021/06/05 04:56:07;;;;;;;5.45;2.53;;;19.40;99.90;;;;;;5008234;28;20145;-71
2021/06/05 04:58:34;;;;;;;4.03;2.42;;;19.40;99.90;;;;;;5009032;28;20073;-70
2021/06/05 05:01:02;;;;;;;4.70;2.50;;;19.50;99.90;;;;;;5010932;28;20046;-70
2021/06/05 05:03:30;;;;;;;3.97;2.38;;;19.40;99.90;;;;;;5009715;28;20044;-71
2021/06/05 05:06:02;;;;;;;5.15;2.03;;;19.30;99.90;;;;;;5010331;28;20137;-72
2021/06/05 05:08:30;;;;;;;5.80;2.13;;;19.30;99.90;;;;;;5008257;28;20046;-71
2021/06/05 05:10:57;;;;;;;4.20;2.10;;;19.40;99.90;;;;;;5006909;28;20050;-72
2021/06/05 05:13:30;;;;;;;4.20;2.00;;;19.30;99.90;;;;;;5005520;28;20097;-71
2021/06/05 05:15:59;;;;;;;6.93;2.15;;;19.40;99.90;;;;;;5007564;28;20082;-71
2021/06/05 05:18:26;;;;;;;7.15;2.47;;;19.50;99.90;;;;;;5007339;28;20129;-72
2021/06/05 05:20:54;;;;;;;5.78;2.85;;;19.50;99.90;;;;;;5009751;28;20203;-72
2021/06/05 05:23:25;;;;;;;7.57;2.65;;;19.40;99.90;;;;;;5040752;28;20089;-71
2021/06/05 05:25:53;;;;;;;6.45;3.30;;;19.40;99.90;;;;;;5008410;28;20077;-71
2021/06/05 05:28:20;;;;;;;4.50;2.25;;;19.50;99.90;;;;;;5008178;28;20077;-70
2021/06/05 05:30:51;;;;;;;4.97;2.50;;;19.60;99.90;;;;;;5009080;28;20061;-71
2021/06/05 05:33:19;;;;;;;4.97;2.17;;;19.60;99.90;;;;;;5006894;28;20391;-72
2021/06/05 05:35:47;;;;;;;6.40;2.38;;;19.70;99.90;;;;;;5008903;28;20080;-70
2021/06/05 05:38:15;;;;;;;4.45;2.20;;;19.70;99.90;;;;;;5008068;28;20069;-71
2021/06/05 05:40:43;;;;;;;7.65;2.13;;;19.90;99.90;;;;;;5007334;28;20050;-72
2021/06/05 05:43:11;;;;;;;5.82;2.47;;;20.20;99.90;;;;;;5041169;28;20585;-72
2021/06/05 05:45:38;;;;;;;5.65;2.55;;;20.30;99.90;;;;;;5008740;28;20053;-71
2021/06/05 05:48:08;;;;;;;5.10;2.75;;;19.90;99.90;;;;;;5003952;28;20096;-73
2021/06/05 05:50:37;;;;;;;6.10;2.67;;;19.90;99.90;;;;;;5006783;28;20130;-72
2021/06/05 05:53:05;;;;;;;5.20;2.70;;;20.00;99.90;;;;;;5006520;28;20175;-72
2021/06/05 05:55:32;;;;;;;6.32;2.55;;;20.10;99.90;;;;;;5007347;28;20045;-72
2021/06/05 05:58:07;;;;;;;3.00;2.38;;;20.10;99.90;;;;;;5023008;28;20133;-72
2021/06/05 06:00:35;;;;;;;4.82;2.45;;;20.30;99.90;;;;;;5008084;28;20065;-71
2021/06/05 06:03:03;;;;;;;6.55;2.50;;;20.50;99.90;;;;;;5007464;28;20489;-72
2021/06/05 06:05:31;;;;;;;4.03;2.75;;;20.90;99.90;;;;;;5009146;28;20095;-67
2021/06/05 06:07:58;;;;;;;5.05;2.70;;;21.00;99.90;;;;;;5006590;28;20080;-67
2021/06/05 06:10:25;;;;;;;6.43;3.00;;;20.90;99.90;;;;;;5007814;28;20115;-69
2021/06/05 06:12:52;;;;;;;5.10;2.40;;;20.80;99.90;;;;;;5006258;28;20485;-68
2021/06/05 06:15:24;;;;;;;7.47;2.67;;;20.50;99.90;;;;;;5005928;28;20141;-68
2021/06/05 06:17:52;;;;;;;5.22;2.58;;;20.80;99.90;;;;;;5008418;28;20124;-68
2021/06/05 06:20:44;;;;;;;4.57;2.65;;;20.60;99.90;;;;;;5008756;28;20045;-68
2021/06/05 06:23:17;;;;;;;6.32;2.45;;;20.60;99.90;;;;;;5006102;28;20137;-68
2021/06/05 06:25:49;;;;;;;3.60;2.35;;;20.50;99.90;;;;;;5006355;28;20038;-66
2021/06/05 06:28:19;;;;;;;5.38;2.78;;;20.70;99.90;;;;;;5006844;28;20077;-67
2021/06/05 06:30:47;;;;;;;4.53;2.63;;;21.20;99.90;;;;;;5007283;28;20038;-66
2021/06/05 06:33:15;;;;;;;5.95;2.47;;;21.00;99.90;;;;;;5007605;28;20133;-67
2021/06/05 06:35:43;;;;;;;4.10;2.47;;;20.80;99.90;;;;;;5008333;28;20045;-66
2021/06/05 06:38:14;;;;;;;7.13;2.40;;;21.20;99.90;;;;;;5007041;28;20042;-71
2021/06/05 06:40:41;;;;;;;5.15;2.72;;;21.10;99.90;;;;;;5005376;28;20078;-71
2021/06/05 06:43:11;;;;;;;5.18;2.42;;;21.30;99.90;;;;;;5002456;28;20471;-70
2021/06/05 06:45:39;;;;;;;6.57;3.47;;;21.20;99.90;;;;;;5008788;28;20141;-70
2021/06/05 06:48:06;;;;;;;5.05;3.50;;;21.00;99.90;;;;;;5007257;28;20045;-71
2021/06/05 06:50:33;;;;;;;11.57;7.25;;;21.10;99.90;;;;;;5010402;28;20088;-71
2021/06/05 06:52:59;;;;;;;9.15;5.75;;;20.90;99.90;;;;;;5008763;28;20224;-71
2021/06/05 06:55:27;;;;;;;6.28;3.90;;;20.90;99.90;;;;;;5006987;28;20166;-71
2021/06/05 06:57:55;;;;;;;5.68;3.80;;;20.80;99.90;;;;;;5005848;28;20077;-71
2021/06/05 07:00:36;;;;;;;6.20;3.28;;;20.50;99.90;;;;;;5010660;28;20412;-71
2021/06/05 07:03:03;;;;;;;6.13;3.67;;;20.70;99.90;;;;;;5006793;28;20054;-72
2021/06/05 07:05:30;;;;;;;9.23;4.85;;;20.80;99.90;;;;;;5006108;28;20115;-71
2021/06/05 07:08:11;;;;;;;8.75;5.20;;;20.70;99.90;;;;;;5006815;28;20046;-71
2021/06/05 07:10:38;;;;;;;8.52;5.30;;;20.60;99.90;;;;;;5008129;28;20393;-72
2021/06/05 07:13:05;;;;;;;11.65;5.47;;;20.40;99.90;;;;;;5003042;28;20058;-72
2021/06/05 07:15:33;;;;;;;7.80;4.28;;;20.40;99.90;;;;;;5007327;28;20133;-71
2021/06/05 07:18:01;;;;;;;9.85;4.90;;;20.40;99.90;;;;;;5005056;28;21924;-72
2021/06/05 07:20:29;;;;;;;7.85;4.50;;;20.50;99.90;;;;;;5007567;28;20439;-71
2021/06/05 07:22:56;;;;;;;8.23;5.15;;;20.60;99.90;;;;;;5008107;28;20140;-72
2021/06/05 07:25:24;;;;;;;12.25;6.32;;;20.60;99.90;;;;;;5006224;28;20049;-71
2021/06/05 07:27:50;;;;;;;10.77;7.53;;;20.60;99.90;;;;;;5006276;28;20137;-71
2021/06/05 07:30:17;;;;;;;10.07;7.13;;;20.60;99.90;;;;;;5009070;28;20169;-72
2021/06/05 07:32:44;;;;;;;14.18;7.38;;;20.60;99.90;;;;;;5008350;28;20531;-71
2021/06/05 07:35:11;;;;;;;11.90;7.32;;;20.60;99.90;;;;;;5007943;28;20089;-71
2021/06/05 07:37:38;;;;;;;8.05;4.80;;;20.60;99.90;;;;;;5006563;28;20073;-71
2021/06/05 07:40:08;;;;;;;9.82;4.88;;;20.80;99.90;;;;;;5007787;28;20137;-71
2021/06/05 07:42:36;;;;;;;11.07;5.25;;;20.80;99.90;;;;;;5006084;28;20061;-71
2021/06/05 07:45:06;;;;;;;10.00;5.60;;;20.80;99.90;;;;;;5006908;28;20471;-71
2021/06/05 07:47:33;;;;;;;7.72;5.20;;;20.80;99.90;;;;;;5006701;28;20052;-70
2021/06/05 07:50:01;;;;;;;7.78;4.75;;;20.80;99.90;;;;;;5004635;28;20088;-72
2021/06/05 07:52:27;;;;;;;10.85;5.25;;;20.90;99.90;;;;;;5007444;28;20149;-72
2021/06/05 07:54:55;;;;;;;7.82;5.10;;;20.90;99.90;;;;;;5007195;28;20144;-72
2021/06/05 07:57:23;;;;;;;11.48;5.80;;;20.90;99.90;;;;;;5004250;28;20070;-73
2021/06/05 07:59:50;;;;;;;12.95;5.50;;;20.90;99.90;;;;;;5003653;28;20104;-72
2021/06/05 08:02:17;;;;;;;8.98;5.50;;;21.10;99.90;;;;;;5009058;28;20061;-71
2021/06/05 08:04:44;;;;;;;15.07;6.30;;;21.10;99.90;;;;;;5003297;28;20673;-73
2021/06/05 08:07:11;;;;;;;10.93;6.35;;;21.00;99.90;;;;;;5007785;28;20050;-71
2021/06/05 08:09:39;;;;;;;17.08;7.65;;;20.80;99.90;;;;;;5008363;28;20056;-71
2021/06/05 08:12:07;;;;;;;11.80;6.93;;;20.60;99.90;;;;;;5007235;28;20140;-67
2021/06/05 08:14:34;;;;;;;13.98;9.13;;;20.70;99.90;;;;;;5010532;28;20041;-67
2021/06/05 08:17:01;;;;;;;13.73;8.35;;;20.70;99.90;;;;;;5044651;28;20054;-67
2021/06/05 08:19:28;;;;;;;17.45;8.20;;;20.80;99.90;;;;;;5008296;28;20042;-67
2021/06/05 08:21:55;;;;;;;12.93;8.40;;;20.80;99.90;;;;;;5012178;28;20414;-68
2021/06/05 08:24:22;;;;;;;12.27;8.50;;;20.80;99.90;;;;;;5012060;28;20133;-67
2021/06/05 08:26:51;;;;;;;16.45;8.77;;;20.90;99.90;;;;;;5009436;28;20069;-66
2021/06/05 08:29:18;;;;;;;14.00;7.90;;;21.00;99.90;;;;;;5007810;28;20138;-68
2021/06/05 08:31:49;;;;;;;17.02;10.02;;;21.10;99.90;;;;;;5010904;28;20081;-67
2021/06/05 08:34:17;;;;;;;13.02;8.07;;;20.90;99.90;;;;;;5003106;28;20641;-68
2021/06/05 08:36:45;;;;;;;14.55;8.30;;;20.80;99.90;;;;;;5013096;28;20145;-69
2021/06/05 08:39:13;;;;;;;10.05;7.88;;;20.80;99.90;;;;;;5010500;28;20104;-67
2021/06/05 08:41:58;;;;;;;14.27;8.43;;;21.00;99.90;;;;;;4998965;28;20561;-67
2021/06/05 08:44:35;;;;;;;15.75;8.25;;;20.80;99.90;;;;;;5011708;28;20145;-72
2021/06/05 08:47:02;;;;;;;12.48;8.68;;;20.90;99.90;;;;;;5008784;28;20136;-67
2021/06/05 08:49:32;;;;;;;11.70;8.10;;;20.90;99.90;;;;;;5009868;28;20108;-68
2021/06/05 08:52:09;;;;;;;19.08;8.90;;;20.90;99.90;;;;;;5004446;28;20160;-73
2021/06/05 08:54:52;;;;;;;13.57;8.43;;;20.90;99.90;;;;;;5001655;28;20060;-75
2021/06/05 08:57:33;;;;;;;16.48;11.65;;;20.80;99.90;;;;;;5003552;28;20386;-78
2021/06/05 09:00:22;;;;;;;18.75;10.07;;;20.70;99.90;;;;;;5003582;28;20054;-72
2021/06/05 09:02:52;;;;;;;11.05;7.45;;;20.70;99.90;;;;;;5002050;28;20734;-76
2021/06/05 09:05:26;;;;;;;11.27;6.68;;;20.70;99.90;;;;;;5002604;28;20794;-74
2021/06/05 09:07:53;;;;;;;11.10;6.78;;;20.80;99.90;;;;;;5003559;28;20176;-76
2021/06/05 09:10:22;;;;;;;10.98;6.30;;;21.00;99.90;;;;;;5002785;28;20065;-76
2021/06/05 09:12:49;;;;;;;14.30;7.43;;;21.10;99.90;;;;;;5004839;28;20049;-76
2021/06/05 09:15:21;;;;;;;11.48;7.13;;;21.10;99.90;;;;;;5003126;28;20561;-76
2021/06/05 09:17:50;;;;;;;9.20;6.53;;;21.10;99.90;;;;;;5001698;28;20584;-72
2021/06/05 09:20:25;;;;;;;14.38;8.40;;;21.20;99.90;;;;;;5003664;28;20128;-76
2021/06/05 09:22:52;;;;;;;11.18;7.75;;;21.00;99.90;;;;;;5004311;28;20068;-76
2021/06/05 09:25:27;;;;;;;13.05;7.55;;;21.10;99.90;;;;;;5004001;28;20788;-75
2021/06/05 09:28:13;;;;;;;13.70;7.88;;;21.20;99.90;;;;;;5003911;28;20136;-75
2021/06/05 09:30:42;;;;;;;10.85;7.28;;;21.10;99.90;;;;;;5004845;28;20132;-76
2021/06/05 09:33:12;;;;;;;11.75;7.20;;;21.30;99.90;;;;;;5004377;28;20133;-76
2021/06/05 09:35:43;;;;;;;15.30;7.95;;;21.60;99.90;;;;;;5004330;28;20073;-73
2021/06/05 09:38:15;;;;;;;13.50;8.40;;;21.60;99.90;;;;;;5001365;28;20129;-76
2021/06/05 09:40:59;;;;;;;15.30;7.85;;;21.30;99.90;;;;;;5002859;28;20165;-77
2021/06/05 09:43:27;;;;;;;11.30;7.10;;;21.10;99.90;;;;;;5021467;28;20057;-77
2021/06/05 09:46:13;;;;;;;11.57;6.90;;;21.10;99.90;;;;;;5003870;28;20141;-76
2021/06/05 09:48:46;;;;;;;13.57;8.18;;;21.30;99.90;;;;;;5001590;28;20108;-78
2021/06/05 09:51:35;;;;;;;14.65;8.10;;;21.20;99.90;;;;;;5004492;28;20405;-77
2021/06/05 09:54:14;;;;;;;10.38;7.57;;;21.40;99.70;;;;;;5003369;28;20054;-77
2021/06/05 09:56:47;;;;;;;19.95;8.55;;;21.50;99.80;;;;;;5004344;28;20105;-76
2021/06/05 09:59:34;;;;;;;15.20;8.00;;;21.40;99.40;;;;;;5002897;28;20640;-74
2021/06/05 10:02:05;;;;;;;14.20;7.55;;;21.50;98.90;;;;;;5002243;28;20048;-76
2021/06/05 10:04:35;;;;;;;16.42;8.15;;;21.40;99.10;;;;;;5001211;28;20780;-76
2021/06/05 10:07:03;;;;;;;12.52;7.10;;;21.60;98.80;;;;;;5002687;28;20465;-77
2021/06/05 10:09:32;;;;;;;11.50;7.15;;;21.70;98.70;;;;;;5002953;28;20057;-75
2021/06/05 10:12:04;;;;;;;12.45;7.30;;;21.80;97.80;;;;;;5003378;28;20144;-77
2021/06/05 10:14:44;;;;;;;10.07;6.50;;;21.80;96.90;;;;;;5002667;28;20066;-76
2021/06/05 10:17:20;;;;;;;12.18;6.60;;;21.70;96.40;;;;;;4987537;28;20082;-74
2021/06/05 10:19:57;;;;;;;10.52;7.00;;;21.60;96.60;;;;;;4991323;28;20840;-75
2021/06/05 10:22:25;;;;;;;9.98;6.15;;;21.60;96.80;;;;;;4990716;28;20073;-76
2021/06/05 10:25:09;;;;;;;8.93;5.85;;;21.70;96.60;;;;;;5012017;28;20141;-75
2021/06/05 10:27:41;;;;;;;9.82;5.55;;;21.60;95.50;;;;;;4990961;28;20168;-74
2021/06/05 10:30:32;;;;;;;9.73;6.22;;;21.60;95.80;;;;;;4993181;28;20160;-75
2021/06/05 10:33:02;;;;;;;11.45;6.18;;;21.60;96.00;;;;;;4990994;28;20064;-74
2021/06/05 10:35:33;;;;;;;13.43;6.10;;;21.60;95.60;;;;;;4992949;28;20069;-75
2021/06/05 10:38:05;;;;;;;9.35;6.50;;;21.60;96.20;;;;;;4988630;28;20109;-73
2021/06/05 10:40:32;;;;;;;10.77;6.35;;;21.80;95.50;;;;;;4991917;28;20137;-78
2021/06/05 10:43:15;;;;;;;8.85;6.63;;;21.90;95.70;;;;;;4990156;28;20481;-74
2021/06/05 10:45:45;;;;;;;12.75;7.32;;;22.00;95.20;;;;;;4992677;28;20480;-75
2021/06/05 10:48:27;;;;;;;12.52;7.07;;;22.00;95.00;;;;;;4990691;28;20060;-74
2021/06/05 10:51:20;;;;;;;12.57;6.90;;;22.00;94.20;;;;;;4991661;28;20489;-75
2021/06/05 10:53:56;;;;;;;12.05;6.50;;;22.00;94.50;;;;;;4988789;28;20128;-77
2021/06/05 10:57:02;;;;;;;11.38;6.57;;;22.00;94.80;;;;;;4991168;28;20065;-73
2021/06/05 10:59:44;;;;;;;10.15;6.80;;;21.80;94.10;;;;;;4989910;28;20064;-77
2021/06/05 11:02:31;;;;;;;11.00;6.97;;;21.90;94.40;;;;;;4989666;28;20054;-75
2021/06/05 11:04:59;;;;;;;16.58;7.20;;;21.80;95.80;;;;;;4991555;28;20148;-76
2021/06/05 11:07:32;;;;;;;10.43;7.13;;;21.80;96.40;;;;;;4988645;28;20136;-75
2021/06/05 11:10:04;;;;;;;12.63;6.70;;;21.70;96.90;;;;;;4988196;28;20188;-77
2021/06/05 11:12:30;;;;;;;10.68;6.85;;;21.50;97.90;;;;;;4990747;28;20140;-75
2021/06/05 11:14:57;;;;;;;14.85;8.32;;;21.70;97.90;;;;;;4988135;28;20069;-75
2021/06/05 11:17:38;;;;;;;13.63;9.20;;;21.80;97.20;;;;;;4990353;28;20160;-74
2021/06/05 11:20:06;;;;;;;17.55;9.07;;;21.70;97.60;;;;;;4989842;28;20810;-72
2021/06/05 11:22:48;;;;;;;14.13;8.90;;;21.80;98.50;;;;;;5009960;28;20161;-71
2021/06/05 11:25:15;;;;;;;15.23;8.93;;;21.70;98.40;;;;;;4992670;28;20049;-73
2021/06/05 11:27:41;;;;;;;15.80;8.60;;;21.60;98.90;;;;;;4986874;28;20054;-71
2021/06/05 11:30:09;;;;;;;10.90;6.90;;;21.80;98.30;;;;;;4989044;28;20507;-74
2021/06/05 11:32:56;;;;;;;13.18;7.20;;;22.10;97.00;;;;;;5017334;28;20144;-73
2021/06/05 11:35:48;;;;;;;11.93;8.18;;;22.50;95.90;;;;;;5004827;28;20084;-73
2021/06/05 11:38:21;;;;;;;17.77;9.38;;;22.50;95.40;;;;;;5005477;28;20042;-75
2021/06/05 11:41:07;;;;;;;12.88;5.93;;;22.60;93.70;;;;;;5003210;28;20048;-74
2021/06/05 11:43:34;;;;;;;9.30;5.00;;;22.70;92.80;;;;;;5003197;28;20042;-73
2021/06/05 11:46:04;;;;;;;13.52;6.13;;;23.00;92.00;;;;;;5006613;28;20038;-73
2021/06/05 11:48:53;;;;;;;16.77;10.38;;;23.00;91.80;;;;;;5006843;28;20057;-72
2021/06/05 11:51:20;;;;;;;10.80;6.57;;;22.90;90.90;;;;;;5012729;28;20799;-73
2021/06/05 11:53:53;;;;;;;14.40;9.32;;;22.90;91.10;;;;;;5009706;28;20134;-72
2021/06/05 11:56:43;;;;;;;16.77;9.40;;;23.30;90.00;;;;;;5009980;28;20137;-73
2021/06/05 11:59:34;;;;;;;15.32;9.52;;;23.40;88.40;;;;;;5004625;28;20129;-72
2021/06/05 12:02:30;;;;;;;11.68;6.00;;;23.40;87.40;;;;;;5012462;28;20220;-72
2021/06/05 12:05:15;;;;;;;13.48;7.70;;;23.60;85.40;;;;;;5003540;28;20460;-74
2021/06/05 12:07:43;;;;;;;9.45;5.65;;;24.10;83.30;;;;;;5007557;28;20060;-73
2021/06/05 12:10:28;;;;;;;17.90;10.88;;;24.50;81.80;;;;;;5008681;28;20488;-74
2021/06/05 12:12:56;;;;;;;13.07;8.40;;;24.80;81.60;;;;;;5012321;28;20212;-73
2021/06/05 12:15:30;;;;;;;9.15;6.28;;;24.50;78.50;;;;;;5010986;28;20050;-73
2021/06/05 12:18:00;;;;;;;9.60;5.57;;;24.70;77.60;;;;;;5010583;28;20120;-72
2021/06/05 12:20:36;;;;;;;8.35;5.20;;;24.70;78.50;;;;;;5013517;28;20060;-73
2021/06/05 12:23:33;;;;;;;6.38;3.90;;;24.40;78.00;;;;;;5012302;28;20064;-73
2021/06/05 12:26:04;;;;;;;6.13;2.97;;;24.00;77.50;;;;;;5009575;28;20397;-73
2021/06/05 12:28:40;;;;;;;7.20;5.22;;;24.00;78.10;;;;;;5000990;28;20138;-73
2021/06/05 12:31:34;;;;;;;6.50;4.40;;;24.00;79.40;;;;;;5011590;28;20080;-73
2021/06/05 12:34:28;;;;;;;8.07;5.22;;;23.60;81.00;;;;;;5008538;28;20048;-73
2021/06/05 12:36:58;;;;;;;5.80;3.83;;;23.30;82.60;;;;;;5002726;28;20078;-73
2021/06/05 12:39:31;;;;;;;6.47;3.45;;;23.10;83.00;;;;;;4997939;28;20133;-73
2021/06/05 12:41:58;;;;;;;7.85;3.92;;;23.10;83.70;;;;;;5002491;28;20130;-73
2021/06/05 12:44:29;;;;;;;6.53;4.00;;;22.90;84.10;;;;;;5009793;28;20677;-73
2021/06/05 12:46:57;;;;;;;6.20;4.28;;;22.60;86.00;;;;;;5010732;28;20100;-74
2021/06/05 12:49:29;;;;;;;9.25;5.78;;;22.60;87.10;;;;;;5009189;28;20373;-74
2021/06/05 12:51:59;;;;;;;15.02;9.48;;;22.20;91.10;;;;;;5011439;28;20136;-73
2021/06/05 12:54:30;;;;;;;18.15;10.23;;;21.10;99.90;;;;;;4999261;28;20077;-73
2021/06/05 12:57:18;;;;;;;15.82;10.10;;;20.60;99.90;;;;;;5009257;28;20137;-74
2021/06/05 12:59:45;;;;;;;15.35;9.50;;;20.30;99.90;;;;;;5009125;28;20050;-74
2021/06/05 13:02:33;;;;;;;19.48;11.65;;;19.40;99.90;;;;;;5012203;28;20116;-73
2021/06/05 13:05:27;;;;;;;29.20;14.00;;;19.30;99.90;;;;;;5009703;28;20108;-73